sensor_id;sensor_type;location;lat;lon;timestamp;P1;durP1;ratioP1;P2;durP2;ratioP2
53775;SDS011;44276;49.534;6.378;2023-04-30T00:02:15;37.92;;;18.92;;
53775;SDS011;44276;49.534;6.378;2023-04-30T00:04:43;38.03;;;18.85;;
53775;SDS011;44276;49.534;6.378;2023-04-30T00:07:12;35.17;;;19.02;;
53775;SDS011;44276;49.534;6.378;2023-04-30T00:09:40;37.70;;;18.42;;
53775;SDS011;44276;49.534;6.378;2023-04-30T00:12:08;40.10;;;19.42;;
53775;SDS011;44276;49.534;6.378;2023-04-30T00:14:38;37.60;;;19.77;;
53775;SDS011;44276;49.534;6.378;2023-04-30T00:17:06;40.47;;;20.25;;
53775;SDS011;44276;49.534;6.378;2023-04-30T00:19:34;42.85;;;19.30;;
53775;SDS011;44276;49.534;6.378;2023-04-30T00:22:02;43.25;;;19.40;;
53775;SDS011;44276;49.534;6.378;2023-04-30T00:24:31;41.25;;;18.42;;
53775;SDS011;44276;49.534;6.378;2023-04-30T00:26:59;32.13;;;18.58;;
53775;SDS011;44276;49.534;6.378;2023-04-30T00:29:27;33.75;;;17.00;;
53775;SDS011;44276;49.534;6.378;2023-04-30T00:31:57;34.90;;;19.10;;
53775;SDS011;44276;49.534;6.378;2023-04-30T00:34:25;38.95;;;21.02;;
53775;SDS011;44276;49.534;6.378;2023-04-30T00:36:53;41.25;;;21.42;;
53775;SDS011;44276;49.534;6.378;2023-04-30T00:39:21;55.67;;;23.10;;
53775;SDS011;44276;49.534;6.378;2023-04-30T00:41:49;46.83;;;21.20;;
53775;SDS011;44276;49.534;6.378;2023-04-30T00:44:17;44.05;;;23.02;;
53775;SDS011;44276;49.534;6.378;2023-04-30T00:46:46;50.35;;;24.38;;
53775;SDS011;44276;49.534;6.378;2023-04-30T00:49:15;41.75;;;20.92;;
53775;SDS011;44276;49.534;6.378;2023-04-30T00:51:44;44.97;;;22.63;;
53775;SDS011;44276;49.534;6.378;2023-04-30T00:54:12;44.97;;;22.10;;
53775;SDS011;44276;49.534;6.378;2023-04-30T00:56:42;47.47;;;22.15;;
53775;SDS011;44276;49.534;6.378;2023-04-30T00:59:11;45.15;;;23.70;;
53775;SDS011;44276;49.534;6.378;2023-04-30T01:01:40;43.97;;;24.92;;
53775;SDS011;44276;49.534;6.378;2023-04-30T01:04:09;46.38;;;22.52;;
53775;SDS011;44276;49.534;6.378;2023-04-30T01:06:39;48.10;;;22.40;;
53775;SDS011;44276;49.534;6.378;2023-04-30T01:09:08;48.80;;;25.65;;
53775;SDS011;44276;49.534;6.378;2023-04-30T01:11:39;47.80;;;22.70;;
53775;SDS011;44276;49.534;6.378;2023-04-30T01:14:20;46.83;;;22.52;;
53775;SDS011;44276;49.534;6.378;2023-04-30T01:16:59;49.70;;;23.08;;
53775;SDS011;44276;49.534;6.378;2023-04-30T01:19:37;53.35;;;22.60;;
53775;SDS011;44276;49.534;6.378;2023-04-30T01:22:11;44.67;;;23.58;;
53775;SDS011;44276;49.534;6.378;2023-04-30T01:25:04;42.65;;;21.77;;
53775;SDS011;44276;49.534;6.378;2023-04-30T01:28:00;57.28;;;24.40;;
53775;SDS011;44276;49.534;6.378;2023-04-30T01:30:32;45.83;;;22.27;;
53775;SDS011;44276;49.534;6.378;2023-04-30T01:33:02;45.67;;;23.92;;
53775;SDS011;44276;49.534;6.378;2023-04-30T01:35:34;46.13;;;23.67;;
53775;SDS011;44276;49.534;6.378;2023-04-30T01:41:34;43.90;;;23.40;;
53775;SDS011;44276;49.534;6.378;2023-04-30T01:44:23;47.30;;;23.42;;
53775;SDS011;44276;49.534;6.378;2023-04-30T01:47:20;45.80;;;22.58;;
53775;SDS011;44276;49.534;6.378;2023-04-30T01:50:04;51.42;;;26.20;;
53775;SDS011;44276;49.534;6.378;2023-04-30T01:52:48;40.58;;;20.33;;
53775;SDS011;44276;49.534;6.378;2023-04-30T01:55:20;41.40;;;21.02;;
53775;SDS011;44276;49.534;6.378;2023-04-30T01:57:55;41.53;;;22.15;;
53775;SDS011;44276;49.534;6.378;2023-04-30T02:00:27;41.08;;;22.75;;
53775;SDS011;44276;49.534;6.378;2023-04-30T02:02:56;40.97;;;20.77;;
53775;SDS011;44276;49.534;6.378;2023-04-30T02:05:25;36.28;;;19.10;;
53775;SDS011;44276;49.534;6.378;2023-04-30T02:07:54;39.55;;;18.58;;
53775;SDS011;44276;49.534;6.378;2023-04-30T02:10:22;34.47;;;19.33;;
53775;SDS011;44276;49.534;6.378;2023-04-30T02:12:52;38.38;;;20.30;;
53775;SDS011;44276;49.534;6.378;2023-04-30T02:15:20;43.10;;;22.38;;
53775;SDS011;44276;49.534;6.378;2023-04-30T02:17:50;44.47;;;22.15;;
53775;SDS011;44276;49.534;6.378;2023-04-30T02:20:18;37.30;;;20.42;;
53775;SDS011;44276;49.534;6.378;2023-04-30T02:22:46;43.00;;;21.85;;
53775;SDS011;44276;49.534;6.378;2023-04-30T02:25:14;40.78;;;19.63;;
53775;SDS011;44276;49.534;6.378;2023-04-30T02:27:43;40.88;;;20.42;;
53775;SDS011;44276;49.534;6.378;2023-04-30T02:30:11;42.08;;;22.73;;
53775;SDS011;44276;49.534;6.378;2023-04-30T02:32:39;41.13;;;22.48;;
53775;SDS011;44276;49.534;6.378;2023-04-30T02:35:09;48.08;;;24.23;;
53775;SDS011;44276;49.534;6.378;2023-04-30T02:37:37;49.40;;;24.02;;
53775;SDS011;44276;49.534;6.378;2023-04-30T02:40:05;47.00;;;21.45;;
53775;SDS011;44276;49.534;6.378;2023-04-30T02:42:35;53.78;;;23.63;;
53775;SDS011;44276;49.534;6.378;2023-04-30T02:45:04;43.78;;;22.13;;
53775;SDS011;44276;49.534;6.378;2023-04-30T02:47:33;48.75;;;23.52;;
53775;SDS011;44276;49.534;6.378;2023-04-30T02:50:01;50.35;;;23.38;;
53775;SDS011;44276;49.534;6.378;2023-04-30T02:52:31;53.47;;;25.17;;
53775;SDS011;44276;49.534;6.378;2023-04-30T02:54:59;49.90;;;23.20;;
53775;SDS011;44276;49.534;6.378;2023-04-30T02:57:27;49.13;;;21.48;;
53775;SDS011;44276;49.534;6.378;2023-04-30T02:59:55;49.63;;;24.50;;
53775;SDS011;44276;49.534;6.378;2023-04-30T03:02:23;45.95;;;21.83;;
53775;SDS011;44276;49.534;6.378;2023-04-30T03:04:51;43.80;;;24.00;;
53775;SDS011;44276;49.534;6.378;2023-04-30T03:07:19;43.55;;;23.55;;
53775;SDS011;44276;49.534;6.378;2023-04-30T03:09:49;45.20;;;23.13;;
53775;SDS011;44276;49.534;6.378;2023-04-30T03:12:17;51.55;;;25.10;;
53775;SDS011;44276;49.534;6.378;2023-04-30T03:14:45;54.67;;;24.33;;
53775;SDS011;44276;49.534;6.378;2023-04-30T03:17:13;48.83;;;24.42;;
53775;SDS011;44276;49.534;6.378;2023-04-30T03:19:41;51.67;;;23.75;;
53775;SDS011;44276;49.534;6.378;2023-04-30T03:22:10;46.13;;;26.02;;
53775;SDS011;44276;49.534;6.378;2023-04-30T03:24:38;46.20;;;23.02;;
53775;SDS011;44276;49.534;6.378;2023-04-30T03:27:07;59.35;;;25.52;;
53775;SDS011;44276;49.534;6.378;2023-04-30T03:29:36;52.13;;;23.67;;
53775;SDS011;44276;49.534;6.378;2023-04-30T03:32:04;53.10;;;25.33;;
53775;SDS011;44276;49.534;6.378;2023-04-30T03:34:32;55.55;;;24.33;;
53775;SDS011;44276;49.534;6.378;2023-04-30T03:37:00;54.95;;;25.10;;
53775;SDS011;44276;49.534;6.378;2023-04-30T03:39:29;48.40;;;27.05;;
53775;SDS011;44276;49.534;6.378;2023-04-30T03:41:57;51.63;;;25.45;;
53775;SDS011;44276;49.534;6.378;2023-04-30T03:44:26;51.70;;;24.38;;
53775;SDS011;44276;49.534;6.378;2023-04-30T03:46:54;52.33;;;24.80;;
53775;SDS011;44276;49.534;6.378;2023-04-30T03:49:22;50.45;;;25.60;;
53775;SDS011;44276;49.534;6.378;2023-04-30T03:51:51;51.70;;;24.98;;
53775;SDS011;44276;49.534;6.378;2023-04-30T03:54:19;58.67;;;28.42;;
53775;SDS011;44276;49.534;6.378;2023-04-30T03:56:47;53.65;;;27.00;;
53775;SDS011;44276;49.534;6.378;2023-04-30T03:59:15;55.00;;;27.55;;
53775;SDS011;44276;49.534;6.378;2023-04-30T04:01:45;46.95;;;25.80;;
53775;SDS011;44276;49.534;6.378;2023-04-30T04:04:13;56.88;;;26.73;;
53775;SDS011;44276;49.534;6.378;2023-04-30T04:06:42;54.15;;;26.40;;
53775;SDS011;44276;49.534;6.378;2023-04-30T04:09:10;57.78;;;26.48;;
53775;SDS011;44276;49.534;6.378;2023-04-30T04:11:38;62.00;;;28.77;;
53775;SDS011;44276;49.534;6.378;2023-04-30T04:14:06;60.25;;;29.27;;
53775;SDS011;44276;49.534;6.378;2023-04-30T04:16:34;61.05;;;26.63;;
53775;SDS011;44276;49.534;6.378;2023-04-30T04:19:05;56.70;;;27.35;;
53775;SDS011;44276;49.534;6.378;2023-04-30T04:21:33;55.80;;;25.48;;
53775;SDS011;44276;49.534;6.378;2023-04-30T04:24:01;51.63;;;24.65;;
53775;SDS011;44276;49.534;6.378;2023-04-30T04:26:33;58.13;;;24.45;;
53775;SDS011;44276;49.534;6.378;2023-04-30T04:29:01;53.50;;;27.08;;
53775;SDS011;44276;49.534;6.378;2023-04-30T04:31:30;56.22;;;29.33;;
53775;SDS011;44276;49.534;6.378;2023-04-30T04:33:58;54.42;;;24.80;;
53775;SDS011;44276;49.534;6.378;2023-04-30T04:36:31;53.35;;;28.13;;
53775;SDS011;44276;49.534;6.378;2023-04-30T04:38:59;45.78;;;22.83;;
53775;SDS011;44276;49.534;6.378;2023-04-30T04:41:28;63.25;;;28.08;;
53775;SDS011;44276;49.534;6.378;2023-04-30T04:43:57;51.63;;;23.52;;
53775;SDS011;44276;49.534;6.378;2023-04-30T04:46:26;47.97;;;24.10;;
53775;SDS011;44276;49.534;6.378;2023-04-30T04:48:57;53.15;;;26.55;;
53775;SDS011;44276;49.534;6.378;2023-04-30T04:51:26;47.67;;;24.52;;
53775;SDS011;44276;49.534;6.378;2023-04-30T04:53:55;48.90;;;25.65;;
53775;SDS011;44276;49.534;6.378;2023-04-30T04:56:23;52.28;;;27.10;;
53775;SDS011;44276;49.534;6.378;2023-04-30T04:58:51;49.80;;;26.15;;
53775;SDS011;44276;49.534;6.378;2023-04-30T05:01:20;48.53;;;25.98;;
53775;SDS011;44276;49.534;6.378;2023-04-30T05:03:48;54.05;;;25.40;;
53775;SDS011;44276;49.534;6.378;2023-04-30T05:06:16;48.70;;;23.95;;
53775;SDS011;44276;49.534;6.378;2023-04-30T05:08:44;45.72;;;24.98;;
53775;SDS011;44276;49.534;6.378;2023-04-30T05:11:14;47.15;;;24.85;;
53775;SDS011;44276;49.534;6.378;2023-04-30T05:13:42;49.47;;;25.35;;
53775;SDS011;44276;49.534;6.378;2023-04-30T05:16:10;38.95;;;19.65;;
53775;SDS011;44276;49.534;6.378;2023-04-30T05:18:38;44.70;;;23.02;;
53775;SDS011;44276;49.534;6.378;2023-04-30T05:21:06;48.63;;;25.63;;
53775;SDS011;44276;49.534;6.378;2023-04-30T05:23:34;51.10;;;23.73;;
53775;SDS011;44276;49.534;6.378;2023-04-30T05:26:03;48.30;;;22.75;;
53775;SDS011;44276;49.534;6.378;2023-04-30T05:28:32;43.60;;;23.85;;
53775;SDS011;44276;49.534;6.378;2023-04-30T05:31:01;44.65;;;23.90;;
53775;SDS011;44276;49.534;6.378;2023-04-30T05:33:29;46.63;;;24.42;;
53775;SDS011;44276;49.534;6.378;2023-04-30T05:35:57;41.45;;;22.52;;
53775;SDS011;44276;49.534;6.378;2023-04-30T05:38:25;38.38;;;20.15;;
53775;SDS011;44276;49.534;6.378;2023-04-30T05:40:53;47.40;;;23.20;;
53775;SDS011;44276;49.534;6.378;2023-04-30T05:43:21;44.63;;;23.60;;
53775;SDS011;44276;49.534;6.378;2023-04-30T05:45:51;39.47;;;22.13;;
53775;SDS011;44276;49.534;6.378;2023-04-30T05:48:19;44.47;;;23.33;;
53775;SDS011;44276;49.534;6.378;2023-04-30T05:50:47;38.70;;;20.67;;
53775;SDS011;44276;49.534;6.378;2023-04-30T05:53:15;40.72;;;20.27;;
53775;SDS011;44276;49.534;6.378;2023-04-30T05:55:43;34.67;;;19.63;;
53775;SDS011;44276;49.534;6.378;2023-04-30T05:58:11;38.28;;;18.63;;
53775;SDS011;44276;49.534;6.378;2023-04-30T06:00:40;31.65;;;16.73;;
53775;SDS011;44276;49.534;6.378;2023-04-30T06:03:09;30.38;;;18.00;;
53775;SDS011;44276;49.534;6.378;2023-04-30T06:05:37;30.60;;;17.80;;
53775;SDS011;44276;49.534;6.378;2023-04-30T06:08:06;27.70;;;16.27;;
53775;SDS011;44276;49.534;6.378;2023-04-30T06:10:34;28.65;;;15.90;;
53775;SDS011;44276;49.534;6.378;2023-04-30T06:13:04;30.58;;;17.80;;
53775;SDS011;44276;49.534;6.378;2023-04-30T06:15:33;24.92;;;15.27;;
53775;SDS011;44276;49.534;6.378;2023-04-30T06:18:01;30.25;;;14.95;;
53775;SDS011;44276;49.534;6.378;2023-04-30T06:20:31;31.30;;;17.20;;
53775;SDS011;44276;49.534;6.378;2023-04-30T06:22:59;24.48;;;15.88;;
53775;SDS011;44276;49.534;6.378;2023-04-30T06:25:29;26.38;;;16.17;;
53775;SDS011;44276;49.534;6.378;2023-04-30T06:27:57;24.52;;;14.68;;
53775;SDS011;44276;49.534;6.378;2023-04-30T06:30:25;26.35;;;16.08;;
53775;SDS011;44276;49.534;6.378;2023-04-30T06:32:53;27.05;;;15.50;;
53775;SDS011;44276;49.534;6.378;2023-04-30T06:35:21;24.63;;;14.27;;
53775;SDS011;44276;49.534;6.378;2023-04-30T06:37:51;28.92;;;13.60;;
53775;SDS011;44276;49.534;6.378;2023-04-30T06:40:19;23.05;;;14.07;;
53775;SDS011;44276;49.534;6.378;2023-04-30T06:42:47;21.33;;;12.52;;
53775;SDS011;44276;49.534;6.378;2023-04-30T06:45:15;23.02;;;13.40;;
53775;SDS011;44276;49.534;6.378;2023-04-30T06:47:44;19.88;;;11.95;;
53775;SDS011;44276;49.534;6.378;2023-04-30T06:50:13;19.38;;;13.38;;
53775;SDS011;44276;49.534;6.378;2023-04-30T06:52:41;18.33;;;12.43;;
53775;SDS011;44276;49.534;6.378;2023-04-30T06:55:11;24.58;;;12.15;;
53775;SDS011;44276;49.534;6.378;2023-04-30T06:57:39;21.30;;;12.13;;
53775;SDS011;44276;49.534;6.378;2023-04-30T07:00:07;15.30;;;10.77;;
53775;SDS011;44276;49.534;6.378;2023-04-30T07:02:37;16.88;;;10.90;;
53775;SDS011;44276;49.534;6.378;2023-04-30T07:05:05;16.42;;;10.30;;
53775;SDS011;44276;49.534;6.378;2023-04-30T07:07:34;15.68;;;10.63;;
53775;SDS011;44276;49.534;6.378;2023-04-30T07:10:03;17.88;;;9.93;;
53775;SDS011;44276;49.534;6.378;2023-04-30T07:12:33;13.52;;;8.77;;
53775;SDS011;44276;49.534;6.378;2023-04-30T07:15:02;17.15;;;9.18;;
53775;SDS011;44276;49.534;6.378;2023-04-30T07:17:30;18.73;;;8.75;;
53775;SDS011;44276;49.534;6.378;2023-04-30T07:19:58;15.07;;;10.02;;
53775;SDS011;44276;49.534;6.378;2023-04-30T07:22:26;14.27;;;8.65;;
53775;SDS011;44276;49.534;6.378;2023-04-30T07:24:54;13.13;;;9.40;;
53775;SDS011;44276;49.534;6.378;2023-04-30T07:27:22;14.25;;;9.70;;
53775;SDS011;44276;49.534;6.378;2023-04-30T07:29:52;14.82;;;10.00;;
53775;SDS011;44276;49.534;6.378;2023-04-30T07:32:21;16.13;;;8.95;;
53775;SDS011;44276;49.534;6.378;2023-04-30T07:34:52;19.65;;;9.20;;
53775;SDS011;44276;49.534;6.378;2023-04-30T07:37:20;13.95;;;7.40;;
53775;SDS011;44276;49.534;6.378;2023-04-30T07:39:48;13.18;;;6.38;;
53775;SDS011;44276;49.534;6.378;2023-04-30T07:42:16;8.20;;;4.18;;
53775;SDS011;44276;49.534;6.378;2023-04-30T07:44:44;7.38;;;3.90;;
53775;SDS011;44276;49.534;6.378;2023-04-30T07:47:15;6.65;;;4.15;;
53775;SDS011;44276;49.534;6.378;2023-04-30T07:49:43;6.03;;;3.65;;
53775;SDS011;44276;49.534;6.378;2023-04-30T07:52:12;6.88;;;3.75;;
53775;SDS011;44276;49.534;6.378;2023-04-30T07:54:40;5.72;;;3.90;;
53775;SDS011;44276;49.534;6.378;2023-04-30T07:57:08;6.57;;;5.07;;
53775;SDS011;44276;49.534;6.378;2023-04-30T07:59:38;6.45;;;3.58;;
53775;SDS011;44276;49.534;6.378;2023-04-30T08:02:06;5.20;;;3.47;;
53775;SDS011;44276;49.534;6.378;2023-04-30T08:04:36;6.82;;;4.57;;
53775;SDS011;44276;49.534;6.378;2023-04-30T08:07:04;5.70;;;4.03;;
53775;SDS011;44276;49.534;6.378;2023-04-30T08:09:33;4.68;;;3.60;;
53775;SDS011;44276;49.534;6.378;2023-04-30T08:12:01;4.72;;;1.98;;
53775;SDS011;44276;49.534;6.378;2023-04-30T08:14:30;4.80;;;2.83;;
53775;SDS011;44276;49.534;6.378;2023-04-30T08:16:59;7.70;;;4.28;;
53775;SDS011;44276;49.534;6.378;2023-04-30T08:19:28;9.77;;;4.80;;
53775;SDS011;44276;49.534;6.378;2023-04-30T08:21:57;7.32;;;4.50;;
53775;SDS011;44276;49.534;6.378;2023-04-30T08:24:26;4.63;;;2.58;;
53775;SDS011;44276;49.534;6.378;2023-04-30T08:26:54;7.07;;;3.38;;
53775;SDS011;44276;49.534;6.378;2023-04-30T08:29:22;3.13;;;2.00;;
53775;SDS011;44276;49.534;6.378;2023-04-30T08:31:51;6.15;;;3.63;;
53775;SDS011;44276;49.534;6.378;2023-04-30T08:34:19;4.22;;;1.90;;
53775;SDS011;44276;49.534;6.378;2023-04-30T08:36:47;2.60;;;1.58;;
53775;SDS011;44276;49.534;6.378;2023-04-30T08:39:16;2.88;;;2.05;;
53775;SDS011;44276;49.534;6.378;2023-04-30T08:41:45;3.03;;;2.00;;
53775;SDS011;44276;49.534;6.378;2023-04-30T08:44:21;9.18;;;1.60;;
53775;SDS011;44276;49.534;6.378;2023-04-30T08:46:50;3.17;;;1.30;;
53775;SDS011;44276;49.534;6.378;2023-04-30T08:49:22;1.85;;;1.27;;
53775;SDS011;44276;49.534;6.378;2023-04-30T08:51:51;2.13;;;1.63;;
53775;SDS011;44276;49.534;6.378;2023-04-30T08:54:21;1.83;;;1.40;;
53775;SDS011;44276;49.534;6.378;2023-04-30T08:56:52;2.20;;;1.35;;
53775;SDS011;44276;49.534;6.378;2023-04-30T08:59:21;1.48;;;0.85;;
53775;SDS011;44276;49.534;6.378;2023-04-30T09:01:49;2.30;;;1.27;;
53775;SDS011;44276;49.534;6.378;2023-04-30T09:04:19;2.95;;;2.00;;
53775;SDS011;44276;49.534;6.378;2023-04-30T09:06:47;5.03;;;1.75;;
53775;SDS011;44276;49.534;6.378;2023-04-30T09:09:18;1.48;;;1.10;;
53775;SDS011;44276;49.534;6.378;2023-04-30T09:11:48;2.88;;;1.38;;
53775;SDS011;44276;49.534;6.378;2023-04-30T09:14:21;2.70;;;1.70;;
53775;SDS011;44276;49.534;6.378;2023-04-30T09:16:52;2.53;;;1.67;;
53775;SDS011;44276;49.534;6.378;2023-04-30T09:19:23;2.08;;;1.50;;
53775;SDS011;44276;49.534;6.378;2023-04-30T09:21:53;2.05;;;1.70;;
53775;SDS011;44276;49.534;6.378;2023-04-30T09:24:23;5.20;;;1.55;;
53775;SDS011;44276;49.534;6.378;2023-04-30T09:26:52;1.70;;;1.35;;
53775;SDS011;44276;49.534;6.378;2023-04-30T09:29:20;2.75;;;1.73;;
53775;SDS011;44276;49.534;6.378;2023-04-30T09:31:48;4.25;;;2.53;;
53775;SDS011;44276;49.534;6.378;2023-04-30T09:34:17;3.78;;;1.75;;
53775;SDS011;44276;49.534;6.378;2023-04-30T09:37:00;4.00;;;1.60;;
53775;SDS011;44276;49.534;6.378;2023-04-30T09:39:30;2.28;;;1.20;;
53775;SDS011;44276;49.534;6.378;2023-04-30T09:42:08;2.80;;;1.90;;
53775;SDS011;44276;49.534;6.378;2023-04-30T09:44:38;3.55;;;1.38;;
53775;SDS011;44276;49.534;6.378;2023-04-30T09:47:11;3.38;;;1.77;;
53775;SDS011;44276;49.534;6.378;2023-04-30T09:49:41;2.92;;;1.75;;
53775;SDS011;44276;49.534;6.378;2023-04-30T09:52:10;3.92;;;1.98;;
53775;SDS011;44276;49.534;6.378;2023-04-30T09:54:40;3.85;;;1.77;;
53775;SDS011;44276;49.534;6.378;2023-04-30T09:57:12;3.70;;;1.35;;
53775;SDS011;44276;49.534;6.378;2023-04-30T09:59:42;5.38;;;1.60;;
53775;SDS011;44276;49.534;6.378;2023-04-30T10:02:13;3.38;;;1.60;;
53775;SDS011;44276;49.534;6.378;2023-04-30T10:04:44;3.05;;;1.30;;
53775;SDS011;44276;49.534;6.378;2023-04-30T10:09:54;1.65;;;1.27;;
53775;SDS011;44276;49.534;6.378;2023-04-30T10:12:32;3.42;;;1.67;;
53775;SDS011;44276;49.534;6.378;2023-04-30T10:15:10;4.63;;;1.48;;
53775;SDS011;44276;49.534;6.378;2023-04-30T10:17:44;1.27;;;1.05;;
53775;SDS011;44276;49.534;6.378;2023-04-30T10:20:20;3.40;;;1.48;;
53775;SDS011;44276;49.534;6.378;2023-04-30T10:22:52;2.40;;;1.70;;
53775;SDS011;44276;49.534;6.378;2023-04-30T10:25:22;3.47;;;1.15;;
53775;SDS011;44276;49.534;6.378;2023-04-30T10:27:53;3.78;;;1.30;;
53775;SDS011;44276;49.534;6.378;2023-04-30T10:30:21;6.60;;;2.28;;
53775;SDS011;44276;49.534;6.378;2023-04-30T10:32:50;4.45;;;1.77;;
53775;SDS011;44276;49.534;6.378;2023-04-30T10:35:34;2.60;;;1.08;;
53775;SDS011;44276;49.534;6.378;2023-04-30T10:38:14;2.58;;;1.92;;
53775;SDS011;44276;49.534;6.378;2023-04-30T10:40:51;6.05;;;1.95;;
53775;SDS011;44276;49.534;6.378;2023-04-30T10:43:23;6.32;;;1.88;;
53775;SDS011;44276;49.534;6.378;2023-04-30T10:45:52;2.53;;;1.35;;
53775;SDS011;44276;49.534;6.378;2023-04-30T10:48:21;1.65;;;1.27;;
53775;SDS011;44276;49.534;6.378;2023-04-30T10:50:52;4.38;;;1.67;;
53775;SDS011;44276;49.534;6.378;2023-04-30T10:53:24;5.30;;;1.70;;
53775;SDS011;44276;49.534;6.378;2023-04-30T10:55:57;2.10;;;1.45;;
53775;SDS011;44276;49.534;6.378;2023-04-30T10:58:32;4.05;;;2.88;;
53775;SDS011;44276;49.534;6.378;2023-04-30T11:01:03;2.17;;;1.27;;
53775;SDS011;44276;49.534;6.378;2023-04-30T11:03:34;2.63;;;1.63;;
53775;SDS011;44276;49.534;6.378;2023-04-30T11:06:07;1.80;;;1.40;;
53775;SDS011;44276;49.534;6.378;2023-04-30T11:08:38;3.70;;;1.70;;
53775;SDS011;44276;49.534;6.378;2023-04-30T11:11:11;2.15;;;1.23;;
53775;SDS011;44276;49.534;6.378;2023-04-30T11:13:46;3.72;;;1.88;;
53775;SDS011;44276;49.534;6.378;2023-04-30T11:16:27;1.88;;;1.45;;
53775;SDS011;44276;49.534;6.378;2023-04-30T11:19:04;1.98;;;1.35;;
53775;SDS011;44276;49.534;6.378;2023-04-30T11:21:38;4.05;;;1.30;;
53775;SDS011;44276;49.534;6.378;2023-04-30T11:24:07;5.10;;;1.45;;
53775;SDS011;44276;49.534;6.378;2023-04-30T11:29:32;1.40;;;1.23;;
53775;SDS011;44276;49.534;6.378;2023-04-30T11:32:02;6.47;;;1.00;;
53775;SDS011;44276;49.534;6.378;2023-04-30T11:34:32;1.42;;;1.08;;
53775;SDS011;44276;49.534;6.378;2023-04-30T11:37:01;2.95;;;1.30;;
53775;SDS011;44276;49.534;6.378;2023-04-30T11:39:30;2.55;;;1.20;;
53775;SDS011;44276;49.534;6.378;2023-04-30T11:42:02;1.73;;;0.95;;
53775;SDS011;44276;49.534;6.378;2023-04-30T11:44:32;1.55;;;1.10;;
53775;SDS011;44276;49.534;6.378;2023-04-30T11:47:01;1.73;;;1.05;;
53775;SDS011;44276;49.534;6.378;2023-04-30T11:49:29;2.13;;;1.38;;
53775;SDS011;44276;49.534;6.378;2023-04-30T11:51:58;2.45;;;0.90;;
53775;SDS011;44276;49.534;6.378;2023-04-30T11:54:29;2.60;;;1.60;;
53775;SDS011;44276;49.534;6.378;2023-04-30T11:56:58;1.15;;;1.05;;
53775;SDS011;44276;49.534;6.378;2023-04-30T11:59:30;1.58;;;1.25;;
53775;SDS011;44276;49.534;6.378;2023-04-30T12:02:06;3.25;;;1.40;;
53775;SDS011;44276;49.534;6.378;2023-04-30T12:04:37;1.42;;;0.93;;
53775;SDS011;44276;49.534;6.378;2023-04-30T12:07:06;2.90;;;1.15;;
53775;SDS011;44276;49.534;6.378;2023-04-30T12:09:50;6.78;;;1.40;;
53775;SDS011;44276;49.534;6.378;2023-04-30T12:12:26;2.40;;;1.48;;
53775;SDS011;44276;49.534;6.378;2023-04-30T12:14:56;2.65;;;1.20;;
53775;SDS011;44276;49.534;6.378;2023-04-30T12:17:31;1.88;;;1.20;;
53775;SDS011;44276;49.534;6.378;2023-04-30T12:20:00;2.38;;;1.40;;
53775;SDS011;44276;49.534;6.378;2023-04-30T12:22:30;6.20;;;1.50;;
53775;SDS011;44276;49.534;6.378;2023-04-30T12:24:58;1.75;;;1.38;;
53775;SDS011;44276;49.534;6.378;2023-04-30T12:27:27;5.00;;;1.77;;
53775;SDS011;44276;49.534;6.378;2023-04-30T12:29:58;2.50;;;1.30;;
53775;SDS011;44276;49.534;6.378;2023-04-30T12:32:36;2.58;;;1.38;;
53775;SDS011;44276;49.534;6.378;2023-04-30T12:35:12;3.03;;;1.33;;
53775;SDS011;44276;49.534;6.378;2023-04-30T12:37:42;3.70;;;1.25;;
53775;SDS011;44276;49.534;6.378;2023-04-30T12:40:12;3.95;;;0.93;;
53775;SDS011;44276;49.534;6.378;2023-04-30T12:42:41;2.17;;;1.30;;
53775;SDS011;44276;49.534;6.378;2023-04-30T12:45:11;1.27;;;1.17;;
53775;SDS011;44276;49.534;6.378;2023-04-30T12:47:40;1.88;;;1.60;;
53775;SDS011;44276;49.534;6.378;2023-04-30T12:50:09;2.00;;;1.10;;
53775;SDS011;44276;49.534;6.378;2023-04-30T12:52:38;1.55;;;0.80;;
53775;SDS011;44276;49.534;6.378;2023-04-30T12:55:15;1.77;;;1.08;;
53775;SDS011;44276;49.534;6.378;2023-04-30T13:00:45;2.40;;;1.40;;
53775;SDS011;44276;49.534;6.378;2023-04-30T13:03:15;1.73;;;0.77;;
53775;SDS011;44276;49.534;6.378;2023-04-30T13:05:47;2.20;;;0.90;;
53775;SDS011;44276;49.534;6.378;2023-04-30T13:08:18;1.13;;;1.02;;
53775;SDS011;44276;49.534;6.378;2023-04-30T13:10:47;2.80;;;0.98;;
53775;SDS011;44276;49.534;6.378;2023-04-30T13:13:17;3.25;;;1.15;;
53775;SDS011;44276;49.534;6.378;2023-04-30T13:15:47;2.13;;;1.20;;
53775;SDS011;44276;49.534;6.378;2023-04-30T13:18:15;1.25;;;0.75;;
53775;SDS011;44276;49.534;6.378;2023-04-30T13:20:43;3.97;;;1.10;;
53775;SDS011;44276;49.534;6.378;2023-04-30T13:23:12;1.80;;;1.20;;
53775;SDS011;44276;49.534;6.378;2023-04-30T13:25:40;1.20;;;1.10;;
53775;SDS011;44276;49.534;6.378;2023-04-30T13:28:08;3.20;;;1.00;;
53775;SDS011;44276;49.534;6.378;2023-04-30T13:30:36;2.03;;;1.27;;
53775;SDS011;44276;49.534;6.378;2023-04-30T13:33:07;2.00;;;0.85;;
53775;SDS011;44276;49.534;6.378;2023-04-30T13:35:35;2.03;;;0.80;;
53775;SDS011;44276;49.534;6.378;2023-04-30T13:38:04;1.42;;;1.30;;
53775;SDS011;44276;49.534;6.378;2023-04-30T13:40:32;1.42;;;0.93;;
53775;SDS011;44276;49.534;6.378;2023-04-30T13:43:00;4.22;;;1.17;;
53775;SDS011;44276;49.534;6.378;2023-04-30T13:45:29;1.95;;;0.93;;
53775;SDS011;44276;49.534;6.378;2023-04-30T13:47:57;1.15;;;0.73;;
53775;SDS011;44276;49.534;6.378;2023-04-30T13:50:27;1.60;;;0.85;;
53775;SDS011;44276;49.534;6.378;2023-04-30T13:52:55;1.65;;;1.15;;
53775;SDS011;44276;49.534;6.378;2023-04-30T13:55:24;1.60;;;0.63;;
53775;SDS011;44276;49.534;6.378;2023-04-30T13:57:52;2.22;;;1.00;;
53775;SDS011;44276;49.534;6.378;2023-04-30T14:00:20;2.92;;;1.15;;
53775;SDS011;44276;49.534;6.378;2023-04-30T14:02:48;4.15;;;0.95;;
53775;SDS011;44276;49.534;6.378;2023-04-30T14:05:17;1.08;;;0.70;;
53775;SDS011;44276;49.534;6.378;2023-04-30T14:07:46;2.70;;;1.67;;
53775;SDS011;44276;49.534;6.378;2023-04-30T14:10:14;1.83;;;1.08;;
53775;SDS011;44276;49.534;6.378;2023-04-30T14:12:42;1.80;;;1.10;;
53775;SDS011;44276;49.534;6.378;2023-04-30T14:15:10;4.07;;;1.55;;
53775;SDS011;44276;49.534;6.378;2023-04-30T14:17:38;1.50;;;0.82;;
53775;SDS011;44276;49.534;6.378;2023-04-30T14:20:07;2.47;;;1.10;;
53775;SDS011;44276;49.534;6.378;2023-04-30T14:22:37;4.65;;;1.40;;
53775;SDS011;44276;49.534;6.378;2023-04-30T14:25:07;2.05;;;1.50;;
53775;SDS011;44276;49.534;6.378;2023-04-30T14:27:37;7.25;;;1.33;;
53775;SDS011;44276;49.534;6.378;2023-04-30T14:30:06;1.55;;;1.00;;
53775;SDS011;44276;49.534;6.378;2023-04-30T14:32:35;1.92;;;0.90;;
53775;SDS011;44276;49.534;6.378;2023-04-30T14:35:04;1.35;;;1.00;;
53775;SDS011;44276;49.534;6.378;2023-04-30T14:37:34;1.13;;;1.02;;
53775;SDS011;44276;49.534;6.378;2023-04-30T14:40:03;1.58;;;1.10;;
53775;SDS011;44276;49.534;6.378;2023-04-30T14:42:34;1.02;;;0.85;;
53775;SDS011;44276;49.534;6.378;2023-04-30T14:45:03;3.30;;;1.40;;
53775;SDS011;44276;49.534;6.378;2023-04-30T14:47:32;1.77;;;0.50;;
53775;SDS011;44276;49.534;6.378;2023-04-30T14:50:00;3.65;;;1.20;;
53775;SDS011;44276;49.534;6.378;2023-04-30T14:52:28;1.52;;;0.80;;
53775;SDS011;44276;49.534;6.378;2023-04-30T14:54:56;1.90;;;1.45;;
53775;SDS011;44276;49.534;6.378;2023-04-30T14:57:24;1.13;;;0.90;;
53775;SDS011;44276;49.534;6.378;2023-04-30T14:59:55;2.15;;;1.35;;
53775;SDS011;44276;49.534;6.378;2023-04-30T15:02:25;1.13;;;1.00;;
53775;SDS011;44276;49.534;6.378;2023-04-30T15:04:54;3.63;;;2.60;;